createdAt,value
2019-03-12T00:00:32.532Z,6.10
2019-03-12T00:02:59.544Z,6.10
2019-03-12T00:05:26.494Z,6.00
2019-03-12T00:07:53.395Z,6.00
2019-03-12T00:10:20.357Z,6.00
2019-03-12T00:12:47.321Z,6.00
2019-03-12T00:15:14.361Z,6.10
2019-03-12T00:17:41.284Z,6.10
2019-03-12T00:20:08.233Z,6.10
2019-03-12T00:22:35.245Z,6.20
2019-03-12T00:25:02.488Z,6.20
2019-03-12T00:27:30.461Z,6.30
2019-03-12T00:29:57.469Z,6.30
2019-03-12T00:32:24.524Z,6.30
2019-03-12T00:34:51.470Z,6.40
2019-03-12T00:37:20.213Z,6.40
2019-03-12T00:39:47.216Z,6.30
2019-03-12T00:42:14.246Z,6.30
2019-03-12T00:44:41.274Z,6.30
2019-03-12T00:47:08.241Z,6.30
2019-03-12T00:49:35.209Z,6.20
2019-03-12T00:52:02.312Z,6.20
2019-03-12T00:54:30.585Z,6.10
2019-03-12T00:56:57.539Z,6.10
2019-03-12T00:59:24.859Z,6.10
2019-03-12T01:01:52.316Z,6.10
2019-03-12T01:04:19.193Z,6.10
2019-03-12T01:06:46.237Z,6.10
2019-03-12T01:09:13.187Z,6.10
2019-03-12T01:11:40.236Z,6.10
2019-03-12T01:14:07.502Z,6.00
2019-03-12T01:16:34.580Z,5.90
2019-03-12T01:19:01.703Z,5.80
2019-03-12T01:21:28.661Z,5.80
2019-03-12T01:23:55.704Z,5.80
2019-03-12T01:26:22.668Z,5.80
2019-03-12T01:28:49.600Z,5.80
2019-03-12T01:31:16.645Z,5.80
2019-03-12T01:33:43.557Z,5.80
2019-03-12T01:36:10.738Z,5.80
2019-03-12T01:38:39.587Z,5.80
2019-03-12T01:41:06.569Z,5.80
2019-03-12T01:43:33.598Z,5.70
2019-03-12T01:46:00.565Z,5.70
2019-03-12T01:48:27.636Z,5.70
2019-03-12T01:50:54.604Z,5.60
2019-03-12T01:53:21.549Z,5.60
2019-03-12T01:55:48.496Z,5.50
2019-03-12T01:58:15.512Z,5.40
2019-03-12T02:00:42.620Z,5.30
2019-03-12T02:03:09.678Z,5.20
2019-03-12T02:05:36.596Z,5.20
2019-03-12T02:08:03.680Z,5.10
2019-03-12T02:10:30.734Z,5.10
2019-03-12T02:12:59.477Z,5.00
2019-03-12T02:15:26.566Z,5.00
2019-03-12T02:17:53.490Z,5.00
2019-03-12T02:20:21.574Z,5.00
2019-03-12T02:22:48.502Z,4.90
2019-03-12T02:25:15.488Z,4.90
2019-03-12T02:27:42.460Z,5.00
2019-03-12T02:30:12.041Z,5.00
2019-03-12T02:32:38.966Z,5.00
2019-03-12T02:35:05.942Z,4.90
2019-03-12T02:37:34.808Z,4.90
2019-03-12T02:40:01.922Z,4.90
2019-03-12T02:42:28.916Z,4.80
2019-03-12T02:44:55.953Z,4.80
2019-03-12T02:47:23.024Z,4.80
2019-03-12T02:49:50.002Z,4.70
2019-03-12T02:52:17.055Z,4.60
2019-03-12T02:54:44.083Z,4.50
2019-03-12T02:57:11.361Z,4.60
2019-03-12T02:59:38.242Z,4.50
2019-03-12T03:02:05.226Z,4.50
2019-03-12T03:04:32.280Z,4.50
2019-03-12T03:07:01.095Z,4.50
2019-03-12T03:09:28.152Z,4.40
2019-03-12T03:11:55.065Z,4.50
2019-03-12T03:14:35.826Z,4.30
2019-03-12T03:17:03.314Z,4.30
2019-03-12T03:19:31.748Z,4.30
2019-03-12T03:21:58.690Z,4.20
2019-03-12T03:24:26.911Z,4.30
2019-03-12T03:26:54.022Z,4.30
2019-03-12T03:29:20.982Z,4.40
2019-03-12T03:31:48.349Z,4.40
2019-03-12T03:34:15.353Z,4.30
2019-03-12T03:36:42.376Z,4.30
2019-03-12T03:39:11.142Z,4.30
2019-03-12T03:41:40.858Z,4.30
2019-03-12T03:44:07.885Z,4.30
2019-03-12T03:46:34.965Z,4.20
2019-03-12T03:49:02.993Z,4.20
2019-03-12T03:51:30.007Z,4.10
2019-03-12T03:53:57.074Z,4.20
2019-03-12T03:56:24.044Z,4.20
2019-03-12T03:58:51.114Z,4.10
2019-03-12T04:01:18.223Z,4.10
2019-03-12T04:03:46.626Z,4.20
2019-03-12T04:06:13.744Z,4.20
2019-03-12T04:08:42.230Z,4.20
2019-03-12T04:11:10.030Z,4.10
2019-03-12T04:13:38.136Z,4.10
2019-03-12T04:16:05.189Z,4.10
2019-03-12T04:18:32.187Z,4.00
2019-03-12T04:20:59.110Z,4.00
2019-03-12T04:23:26.324Z,4.10
2019-03-12T04:25:55.005Z,4.10
2019-03-12T04:28:22.120Z,4.00
2019-03-12T04:30:49.102Z,4.00
2019-03-12T04:33:52.874Z,4.00
2019-03-12T04:36:19.952Z,4.00
2019-03-12T04:38:46.990Z,3.90
2019-03-12T04:41:14.001Z,3.80
2019-03-12T04:43:40.886Z,3.80
2019-03-12T04:46:07.859Z,3.80
2019-03-12T04:48:34.899Z,3.90
2019-03-12T04:51:02.024Z,3.80
2019-03-12T04:53:29.077Z,3.80
2019-03-12T04:55:56.052Z,3.90
2019-03-12T04:58:22.994Z,3.90
2019-03-12T05:00:49.989Z,3.90
2019-03-12T05:03:17.010Z,3.90
2019-03-12T05:05:43.996Z,3.90
2019-03-12T05:08:11.044Z,3.90
2019-03-12T05:10:38.022Z,3.90
2019-03-12T05:13:04.964Z,3.90
2019-03-12T05:15:31.844Z,3.90
2019-03-12T05:17:58.856Z,3.90
2019-03-12T05:20:27.602Z,3.90
2019-03-12T05:22:54.522Z,3.90
2019-03-12T05:25:23.293Z,3.90
2019-03-12T05:27:50.242Z,3.90
2019-03-12T05:30:17.373Z,3.90
2019-03-12T05:32:44.383Z,4.00
2019-03-12T05:35:13.244Z,4.00
2019-03-12T05:37:40.157Z,4.00
2019-03-12T05:40:07.636Z,4.00
2019-03-12T05:42:34.661Z,4.00
2019-03-12T05:45:01.636Z,3.90
2019-03-12T05:47:28.742Z,4.00
2019-03-12T05:49:55.949Z,4.00
2019-03-12T05:52:23.025Z,4.10
2019-03-12T05:54:50.157Z,4.00
2019-03-12T05:57:17.155Z,4.00
2019-03-12T05:59:45.371Z,4.00
2019-03-12T06:02:12.341Z,4.00
2019-03-12T06:04:39.434Z,4.10
2019-03-12T06:07:06.595Z,4.00
2019-03-12T06:09:33.600Z,4.00
2019-03-12T06:12:00.605Z,4.10
2019-03-12T06:14:27.691Z,4.10
2019-03-12T06:16:54.564Z,4.10
2019-03-12T06:19:21.533Z,4.10
2019-03-12T06:21:48.524Z,4.10
2019-03-12T06:24:15.462Z,4.20
2019-03-12T06:26:42.424Z,4.20
2019-03-12T06:29:09.292Z,4.30
2019-03-12T06:31:38.133Z,4.40
2019-03-12T06:34:07.070Z,4.60
2019-03-12T06:36:35.932Z,4.70
2019-03-12T06:39:09.517Z,4.80
2019-03-12T06:41:41.026Z,4.90
2019-03-12T06:44:13.079Z,5.00
2019-03-12T06:46:44.935Z,5.00
2019-03-12T06:49:16.723Z,5.10
2019-03-12T06:52:02.644Z,5.10
2019-03-12T06:54:31.497Z,5.10
2019-03-12T06:57:12.257Z,5.10
2019-03-12T06:59:46.968Z,5.10
2019-03-12T07:02:25.033Z,5.30
2019-03-12T07:04:53.900Z,5.40
2019-03-12T07:07:41.749Z,5.60
2019-03-12T07:10:18.699Z,5.60
2019-03-12T07:12:53.411Z,5.70
2019-03-12T07:15:28.152Z,5.70
2019-03-12T07:18:04.302Z,5.80
2019-03-12T07:20:33.221Z,5.90
2019-03-12T07:23:04.856Z,5.90
2019-03-12T07:25:42.333Z,6.00
2019-03-12T07:28:11.220Z,6.10
2019-03-12T07:30:40.048Z,6.20
2019-03-12T07:33:21.103Z,6.30
2019-03-12T07:35:59.208Z,6.40
2019-03-12T07:38:30.767Z,6.40
2019-03-12T07:41:08.665Z,6.40
2019-03-12T07:43:37.571Z,6.30
2019-03-12T07:46:15.419Z,6.30
2019-03-12T07:48:44.287Z,6.40
2019-03-12T07:51:15.927Z,6.40
2019-03-12T07:53:44.843Z,6.50
2019-03-12T07:56:16.433Z,6.70
2019-03-12T07:58:48.145Z,6.90
2019-03-12T08:01:25.736Z,7.00
2019-03-12T08:04:11.239Z,7.20
2019-03-12T08:06:40.073Z,7.20
2019-03-12T08:09:24.153Z,7.30
2019-03-12T08:11:53.085Z,7.30
2019-03-12T08:14:26.899Z,7.30
2019-03-12T08:17:12.130Z,7.40
2019-03-12T08:19:53.259Z,7.40
2019-03-12T08:22:34.563Z,9.00
2019-03-12T08:25:12.229Z,11.60
2019-03-12T08:27:56.604Z,13.70
2019-03-12T08:30:27.227Z,15.10
2019-03-12T08:33:11.252Z,15.60
2019-03-12T08:35:49.212Z,15.70
2019-03-12T08:38:18.222Z,14.40
2019-03-12T08:40:52.419Z,13.10
2019-03-12T08:43:20.763Z,12.20
2019-03-12T08:45:55.561Z,11.40
2019-03-12T08:48:27.357Z,10.70
2019-03-12T08:51:05.760Z,10.30
2019-03-12T08:53:41.980Z,10.10
2019-03-12T08:56:14.084Z,10.00
2019-03-12T08:58:42.934Z,9.90
2019-03-12T09:01:28.662Z,9.90
2019-03-12T09:04:06.091Z,9.80
2019-03-12T09:06:43.661Z,9.80
2019-03-12T09:09:29.440Z,9.70
2019-03-12T09:12:00.979Z,9.70
2019-03-12T09:14:30.048Z,9.60
2019-03-12T09:17:15.219Z,9.70
2019-03-12T09:20:02.383Z,9.70
2019-03-12T09:22:48.063Z,9.60
2019-03-12T09:25:25.701Z,9.70
2019-03-12T09:28:11.044Z,9.60
2019-03-12T09:30:42.926Z,9.70
2019-03-12T09:33:11.782Z,9.70
2019-03-12T09:35:45.441Z,9.80
2019-03-12T09:38:31.184Z,9.80
2019-03-12T09:41:02.765Z,9.80
2019-03-12T09:43:48.161Z,9.80
2019-03-12T09:46:35.692Z,9.80
2019-03-12T09:49:04.706Z,9.90
2019-03-12T09:51:33.765Z,9.90
2019-03-12T09:54:19.347Z,10.00
2019-03-12T09:57:04.526Z,10.00
2019-03-12T09:59:40.469Z,10.10
2019-03-12T10:02:12.005Z,10.30
2019-03-12T10:04:40.971Z,10.40
2019-03-12T10:07:26.527Z,10.50
2019-03-12T10:10:07.098Z,10.60
2019-03-12T10:12:36.047Z,10.70
2019-03-12T10:15:08.531Z,10.90
2019-03-12T10:17:54.390Z,11.00
2019-03-12T10:20:38.148Z,11.00
2019-03-12T10:23:23.378Z,11.00
2019-03-12T10:25:52.271Z,10.80
2019-03-12T10:28:27.369Z,10.70
2019-03-12T10:30:56.328Z,10.80
2019-03-12T10:33:28.119Z,10.90
2019-03-12T10:35:59.814Z,11.00
2019-03-12T10:39:08.891Z,11.10
2019-03-12T10:41:37.783Z,11.20
2019-03-12T10:44:09.355Z,11.30
2019-03-12T10:46:38.247Z,11.30
2019-03-12T10:49:07.077Z,11.20
2019-03-12T10:51:35.914Z,11.20
2019-03-12T10:54:02.822Z,11.20
2019-03-12T10:56:29.837Z,11.10
2019-03-12T10:58:56.818Z,11.10
2019-03-12T11:01:23.784Z,11.10
2019-03-12T11:03:50.743Z,11.10
2019-03-12T11:06:17.976Z,11.30
2019-03-12T11:08:45.161Z,11.40
2019-03-12T11:11:12.256Z,11.40
2019-03-12T11:13:39.219Z,11.40
2019-03-12T11:16:06.490Z,11.50
2019-03-12T11:18:33.501Z,11.50
2019-03-12T11:21:00.584Z,11.50
2019-03-12T11:23:29.410Z,11.60
2019-03-12T11:25:56.442Z,11.60
2019-03-12T11:28:26.548Z,11.60
2019-03-12T11:30:52.352Z,11.50
2019-03-12T11:33:19.235Z,11.50
2019-03-12T11:35:46.156Z,11.50
2019-03-12T11:38:13.106Z,11.50
2019-03-12T11:40:40.112Z,11.50
2019-03-12T11:43:07.486Z,11.50
2019-03-12T11:45:36.464Z,11.50
2019-03-12T11:48:03.577Z,11.60
2019-03-12T11:50:31.056Z,11.50
2019-03-12T11:52:59.640Z,11.60
2019-03-12T11:55:27.138Z,11.60
2019-03-12T11:57:54.291Z,11.60
2019-03-12T12:00:26.254Z,11.50
2019-03-12T12:02:59.931Z,11.50
2019-03-12T12:05:22.137Z,11.50
2019-03-12T12:07:49.270Z,11.50
2019-03-12T12:10:16.732Z,11.50
2019-03-12T12:12:43.813Z,11.50
2019-03-12T12:15:11.353Z,11.40
2019-03-12T12:17:38.530Z,11.40
2019-03-12T12:20:06.656Z,11.40
2019-03-12T12:22:33.544Z,11.50
2019-03-12T12:25:00.615Z,11.50
2019-03-12T12:27:27.588Z,11.40
2019-03-12T12:29:54.685Z,11.40
2019-03-12T12:32:21.600Z,11.40
2019-03-12T12:34:48.586Z,11.50
2019-03-12T12:37:15.549Z,11.50
2019-03-12T12:39:42.606Z,11.60
2019-03-12T12:42:09.550Z,11.60
2019-03-12T12:44:36.538Z,11.70
2019-03-12T12:47:05.319Z,11.70
2019-03-12T12:49:32.363Z,11.70
2019-03-12T12:51:59.334Z,11.70
2019-03-12T12:54:26.228Z,11.80
2019-03-12T12:56:53.232Z,12.00
2019-03-12T12:59:20.286Z,12.00
2019-03-12T13:01:47.284Z,12.00
2019-03-12T13:04:14.244Z,12.00
2019-03-12T13:06:41.237Z,12.00
2019-03-12T13:09:09.497Z,12.00
2019-03-12T13:11:36.479Z,11.90
2019-03-12T13:14:03.583Z,11.90
2019-03-12T13:16:30.540Z,12.00
2019-03-12T13:18:57.519Z,12.10
2019-03-12T13:21:24.570Z,12.20
2019-03-12T13:23:51.527Z,12.20
2019-03-12T13:26:18.477Z,12.20
2019-03-12T13:28:45.372Z,12.30
2019-03-12T13:31:12.308Z,12.30
2019-03-12T13:33:39.207Z,12.30
2019-03-12T13:36:08.149Z,12.30
2019-03-12T13:38:45.135Z,12.30
2019-03-12T13:41:04.146Z,12.40
2019-03-12T13:43:31.146Z,12.40
2019-03-12T13:45:58.154Z,12.50
2019-03-12T13:48:25.280Z,12.40
2019-03-12T13:50:52.333Z,12.30
2019-03-12T13:53:19.373Z,12.20
2019-03-12T13:55:46.333Z,12.20
2019-03-12T13:58:15.009Z,12.10
2019-03-12T14:00:43.101Z,12.10
2019-03-12T14:03:10.104Z,12.00
2019-03-12T14:05:37.095Z,12.00
2019-03-12T14:08:04.072Z,12.00
2019-03-12T14:10:31.081Z,12.00
2019-03-12T14:12:59.248Z,12.10
2019-03-12T14:15:27.545Z,12.10
2019-03-12T14:17:54.820Z,12.20
2019-03-12T14:20:47.947Z,12.30
2019-03-12T14:23:26.465Z,12.40
2019-03-12T14:25:53.368Z,12.40
2019-03-12T14:28:20.519Z,12.40
2019-03-12T14:30:47.377Z,12.40
2019-03-12T14:33:14.602Z,12.30
2019-03-12T14:35:50.676Z,12.20
2019-03-12T14:38:10.519Z,12.10
2019-03-12T14:40:37.527Z,12.00
2019-03-12T14:43:24.526Z,12.00
2019-03-12T14:45:53.668Z,11.90
2019-03-12T14:48:46.257Z,11.90
2019-03-12T14:51:17.212Z,11.90
2019-03-12T14:53:44.661Z,11.90
2019-03-12T14:56:11.716Z,11.80
2019-03-12T14:58:42.600Z,11.80
2019-03-12T15:01:12.961Z,11.70
2019-03-12T15:03:48.065Z,11.70
2019-03-12T15:06:16.161Z,11.70
2019-03-12T15:09:11.453Z,11.80
2019-03-12T15:11:29.492Z,11.80
2019-03-12T15:14:12.672Z,11.80
2019-03-12T15:16:49.759Z,11.80
2019-03-12T15:19:23.110Z,11.60
2019-03-12T15:21:50.614Z,11.50
2019-03-12T15:24:19.852Z,11.40
2019-03-12T15:26:57.199Z,11.40
2019-03-12T15:29:36.077Z,11.30
2019-03-12T15:32:13.022Z,11.20
2019-03-12T15:34:51.542Z,11.30
2019-03-12T15:37:32.440Z,11.20
2019-03-12T15:40:15.304Z,11.20
2019-03-12T15:43:08.933Z,11.20
2019-03-12T15:45:38.908Z,11.10
2019-03-12T15:48:13.638Z,11.10
2019-03-12T15:50:44.202Z,11.00
2019-03-12T15:53:29.467Z,11.00
2019-03-12T15:56:03.648Z,10.90
2019-03-12T15:58:34.954Z,10.90
2019-03-12T16:01:20.449Z,10.90
2019-03-12T16:03:53.362Z,10.90
2019-03-12T16:06:26.600Z,10.80
2019-03-12T16:09:21.659Z,10.80
2019-03-12T16:11:57.918Z,10.80
2019-03-12T16:14:31.865Z,10.80
2019-03-12T16:16:59.394Z,10.80
2019-03-12T16:19:47.233Z,10.80
2019-03-12T16:22:19.519Z,10.70
2019-03-12T16:24:55.091Z,10.60
2019-03-12T16:27:37.570Z,10.60
2019-03-12T16:30:27.852Z,10.60
2019-03-12T16:33:11.330Z,10.60
2019-03-12T16:35:48.651Z,10.60
2019-03-12T16:38:23.805Z,10.50
2019-03-12T16:40:54.956Z,10.40
2019-03-12T16:43:25.116Z,10.40
2019-03-12T16:45:52.616Z,10.40
2019-03-12T16:48:20.078Z,10.40
2019-03-12T16:50:52.585Z,10.40
2019-03-12T16:53:33.156Z,10.30
2019-03-12T16:56:00.678Z,10.40
2019-03-12T16:58:31.312Z,10.30
2019-03-12T17:01:02.919Z,10.30
2019-03-12T17:03:32.540Z,10.30
2019-03-12T17:06:06.947Z,10.30
2019-03-12T17:08:38.203Z,10.20
2019-03-12T17:11:11.819Z,10.20
2019-03-12T17:13:43.044Z,10.20
2019-03-12T17:16:21.779Z,10.20
2019-03-12T17:18:57.708Z,10.20
2019-03-12T17:21:38.355Z,10.20
2019-03-12T17:24:17.539Z,10.20
2019-03-12T17:26:48.560Z,10.20
2019-03-12T17:29:16.279Z,10.10
2019-03-12T17:32:04.922Z,10.10
2019-03-12T17:34:37.126Z,10.10
2019-03-12T17:37:09.393Z,10.10
2019-03-12T17:39:41.875Z,10.10
2019-03-12T17:42:24.307Z,10.10
2019-03-12T17:44:54.923Z,10.10
2019-03-12T17:47:36.523Z,10.10
2019-03-12T17:50:12.397Z,10.10
2019-03-12T17:52:45.306Z,10.10
2019-03-12T17:55:20.493Z,10.10
2019-03-12T17:57:54.534Z,10.10
2019-03-12T18:00:31.178Z,10.10
2019-03-12T18:02:59.660Z,10.10
2019-03-12T18:05:31.314Z,10.20
2019-03-12T18:08:06.993Z,10.10
2019-03-12T18:10:36.381Z,10.20
2019-03-12T18:13:13.871Z,10.10
2019-03-12T18:15:44.194Z,10.10
2019-03-12T18:18:23.148Z,10.10
2019-03-12T18:20:51.530Z,10.20
2019-03-12T18:23:27.343Z,10.10
2019-03-12T18:26:04.226Z,10.10
2019-03-12T18:28:34.729Z,10.20
2019-03-12T18:31:08.787Z,10.20
2019-03-12T18:33:43.346Z,10.10
2019-03-12T18:36:24.834Z,10.10
2019-03-12T18:39:04.889Z,10.10
2019-03-12T18:41:37.720Z,10.10
2019-03-12T18:44:12.190Z,10.20
2019-03-12T18:46:43.075Z,10.10
2019-03-12T18:49:16.736Z,10.20
2019-03-12T18:51:51.650Z,10.20
2019-03-12T18:54:34.187Z,10.10
2019-03-12T18:57:06.256Z,10.10
2019-03-12T18:59:41.830Z,10.20
2019-03-12T19:02:18.933Z,10.20
2019-03-12T19:05:00.393Z,10.20
2019-03-12T19:07:40.033Z,10.20
2019-03-12T19:10:12.773Z,10.20
2019-03-12T19:13:12.704Z,10.20
2019-03-12T19:15:51.963Z,10.20
2019-03-12T19:18:44.412Z,10.20
2019-03-12T19:21:18.499Z,10.20
2019-03-12T19:24:18.580Z,10.20
2019-03-12T19:26:48.551Z,10.20
2019-03-12T19:29:23.914Z,10.20
2019-03-12T19:32:07.679Z,10.20
2019-03-12T19:34:42.662Z,10.30
2019-03-12T19:37:13.004Z,10.30
2019-03-12T19:39:52.730Z,10.30
2019-03-12T19:42:22.703Z,10.30
2019-03-12T19:45:03.722Z,10.30
2019-03-12T19:47:32.259Z,10.30
2019-03-12T19:50:02.966Z,10.20
2019-03-12T19:52:31.602Z,10.20
2019-03-12T19:55:02.008Z,10.20
2019-03-12T19:57:34.442Z,10.20
2019-03-12T20:00:06.171Z,10.20
2019-03-12T20:02:42.420Z,10.20
2019-03-12T20:05:21.477Z,10.30
2019-03-12T20:07:56.113Z,10.30
2019-03-12T20:11:17.183Z,10.30
2019-03-12T20:14:34.196Z,10.30
2019-03-12T20:17:32.204Z,10.30
2019-03-12T20:20:39.141Z,10.30
2019-03-12T20:24:07.296Z,10.30
2019-03-12T20:27:36.971Z,10.30
2019-03-12T20:30:45.192Z,10.30
2019-03-12T20:34:39.683Z,10.30
2019-03-12T20:37:53.114Z,10.30
2019-03-12T20:41:10.077Z,10.30
2019-03-12T20:44:13.541Z,10.30
2019-03-12T20:47:24.404Z,10.30
2019-03-12T20:50:19.738Z,10.30
2019-03-12T20:53:45.417Z,10.30
2019-03-12T20:57:02.249Z,10.30
2019-03-12T21:00:28.130Z,10.20
2019-03-12T21:03:29.682Z,10.20
2019-03-12T21:06:35.222Z,10.30
2019-03-12T21:09:43.080Z,10.30
2019-03-12T21:13:01.435Z,10.30
2019-03-12T21:16:06.891Z,10.30
2019-03-12T21:19:24.363Z,10.20
2019-03-12T21:22:28.988Z,10.20
2019-03-12T21:25:36.562Z,10.20
2019-03-12T21:28:38.855Z,10.20
2019-03-12T21:31:15.208Z,10.20
2019-03-12T21:33:48.614Z,10.20
2019-03-12T21:36:26.834Z,10.20
2019-03-12T21:38:56.937Z,10.20
2019-03-12T21:41:30.037Z,10.20
2019-03-12T21:43:59.218Z,10.20
2019-03-12T21:46:32.259Z,10.10
2019-03-12T21:49:07.855Z,10.10
2019-03-12T21:51:46.885Z,10.10
2019-03-12T21:54:23.964Z,10.10
2019-03-12T21:56:56.190Z,10.00
2019-03-12T21:59:29.493Z,10.00
2019-03-12T22:01:56.702Z,10.00
2019-03-12T22:04:23.803Z,10.00
2019-03-12T22:06:51.111Z,10.00
2019-03-12T22:09:18.289Z,9.90
2019-03-12T22:11:45.362Z,9.90
2019-03-12T22:14:12.378Z,9.90
2019-03-12T22:16:39.500Z,9.90
2019-03-12T22:19:06.677Z,9.80
2019-03-12T22:21:38.905Z,9.80
2019-03-12T22:24:07.833Z,9.80
2019-03-12T22:26:35.122Z,9.80
2019-03-12T22:29:03.661Z,9.80
2019-03-12T22:31:30.782Z,9.80
2019-03-12T22:33:58.159Z,9.80
2019-03-12T22:36:25.365Z,9.80
2019-03-12T22:38:54.569Z,9.80
2019-03-12T22:41:22.578Z,9.70
2019-03-12T22:43:49.748Z,9.70
2019-03-12T22:46:16.644Z,9.70
2019-03-12T22:48:43.673Z,9.80
2019-03-12T22:51:15.223Z,9.90
2019-03-12T22:53:42.286Z,10.00
2019-03-12T22:56:09.217Z,10.10
2019-03-12T22:58:36.303Z,10.10
2019-03-12T23:01:03.400Z,10.10
2019-03-12T23:03:30.508Z,10.20
2019-03-12T23:05:57.514Z,10.20
2019-03-12T23:08:24.611Z,10.20
2019-03-12T23:10:52.574Z,10.20
2019-03-12T23:13:19.585Z,10.20
2019-03-12T23:15:46.566Z,10.20
2019-03-12T23:18:13.572Z,10.20
2019-03-12T23:20:40.636Z,10.20
2019-03-12T23:23:07.666Z,10.20
2019-03-12T23:25:34.755Z,10.20
2019-03-12T23:28:01.774Z,10.10
2019-03-12T23:30:29.167Z,10.10
2019-03-12T23:32:56.974Z,10.10
2019-03-12T23:35:24.474Z,9.90
2019-03-12T23:37:51.550Z,9.60
2019-03-12T23:40:18.776Z,9.20
2019-03-12T23:42:45.926Z,8.90
2019-03-12T23:45:13.969Z,8.70
2019-03-12T23:47:41.013Z,8.60
2019-03-12T23:50:08.640Z,8.50
2019-03-12T23:52:35.793Z,8.40
2019-03-12T23:55:03.455Z,8.30
2019-03-12T23:57:30.471Z,8.30
2019-03-12T23:59:57.844Z,8.30
